createdAt,value
2017-08-18T00:02:17.236Z,3.30
2017-08-18T00:04:43.598Z,3.63
2017-08-18T00:07:09.974Z,3.17
2017-08-18T00:09:36.338Z,2.83
2017-08-18T00:12:02.929Z,3.57
2017-08-18T00:14:29.425Z,3.30
2017-08-18T00:16:56.045Z,3.30
2017-08-18T00:19:23.014Z,3.40
2017-08-18T00:21:49.692Z,3.93
2017-08-18T00:24:16.340Z,3.70
2017-08-18T00:26:48.035Z,3.70
2017-08-18T00:29:14.933Z,3.67
2017-08-18T00:31:41.728Z,3.70
2017-08-18T00:34:08.415Z,2.93
2017-08-18T00:36:35.251Z,4.00
2017-08-18T00:39:01.694Z,3.63
2017-08-18T00:41:28.173Z,3.23
2017-08-18T00:43:54.606Z,3.40
2017-08-18T00:46:21.111Z,3.57
2017-08-18T00:48:47.577Z,3.40
2017-08-18T00:51:14.008Z,3.60
2017-08-18T00:53:40.441Z,2.97
2017-08-18T00:56:06.907Z,3.63
2017-08-18T00:58:33.413Z,4.00
2017-08-18T01:00:59.927Z,3.90
2017-08-18T01:03:26.374Z,3.37
2017-08-18T01:05:52.885Z,3.40
2017-08-18T01:08:19.328Z,3.63
2017-08-18T01:10:45.821Z,4.13
2017-08-18T01:13:12.286Z,3.47
2017-08-18T01:15:38.679Z,3.97
2017-08-18T01:18:05.084Z,3.40
2017-08-18T01:20:31.581Z,3.73
2017-08-18T01:22:58.050Z,3.97
2017-08-18T01:25:24.432Z,3.50
2017-08-18T01:27:50.863Z,3.07
2017-08-18T01:30:17.296Z,3.53
2017-08-18T01:32:43.730Z,3.37
2017-08-18T01:35:10.159Z,3.43
2017-08-18T01:37:36.605Z,3.90
2017-08-18T01:40:03.040Z,3.63
2017-08-18T01:42:29.476Z,3.53
2017-08-18T01:44:55.890Z,3.27
2017-08-18T01:47:22.333Z,3.50
2017-08-18T01:49:48.765Z,3.63
2017-08-18T01:52:15.189Z,3.90
2017-08-18T01:54:41.617Z,3.37
2017-08-18T01:57:08.021Z,3.10
2017-08-18T01:59:34.426Z,3.47
2017-08-18T02:02:00.809Z,3.67
2017-08-18T02:04:27.212Z,2.90
2017-08-18T02:06:53.620Z,3.80
2017-08-18T02:09:19.998Z,2.67
2017-08-18T02:11:46.397Z,2.80
2017-08-18T02:14:12.782Z,3.23
2017-08-18T02:16:39.211Z,3.67
2017-08-18T02:19:05.551Z,3.97
2017-08-18T02:21:31.898Z,4.00
2017-08-18T02:23:58.290Z,4.13
2017-08-18T02:26:24.683Z,4.13
2017-08-18T02:28:51.093Z,4.10
2017-08-18T02:31:17.498Z,3.57
2017-08-18T02:33:43.918Z,3.60
2017-08-18T02:36:10.327Z,4.20
2017-08-18T02:38:36.761Z,3.57
2017-08-18T02:41:03.163Z,3.80
2017-08-18T02:43:29.598Z,3.27
2017-08-18T02:45:56.027Z,3.77
2017-08-18T02:48:22.452Z,3.53
2017-08-18T02:50:48.845Z,4.10
2017-08-18T02:53:15.320Z,3.47
2017-08-18T02:55:41.754Z,4.30
2017-08-18T02:58:08.136Z,3.80
2017-08-18T03:00:34.607Z,3.87
2017-08-18T03:03:01.019Z,3.90
2017-08-18T03:05:27.468Z,3.57
2017-08-18T03:07:53.900Z,3.67
2017-08-18T03:10:20.347Z,4.37
2017-08-18T03:12:46.751Z,3.87
2017-08-18T03:15:13.166Z,4.43
2017-08-18T03:17:39.595Z,4.07
2017-08-18T03:20:06.037Z,4.90
2017-08-18T03:22:32.429Z,4.60
2017-08-18T03:24:58.814Z,4.40
2017-08-18T03:27:25.321Z,4.00
2017-08-18T03:29:52.959Z,4.93
2017-08-18T03:32:19.439Z,5.20
2017-08-18T03:34:45.853Z,4.77
2017-08-18T03:37:12.305Z,4.10
2017-08-18T03:39:39.013Z,4.53
2017-08-18T03:42:05.492Z,4.10
2017-08-18T03:44:32.022Z,3.80
2017-08-18T03:46:58.494Z,4.10
2017-08-18T03:49:25.552Z,4.10
2017-08-18T03:51:52.071Z,3.50
2017-08-18T03:54:19.364Z,4.00
2017-08-18T03:56:45.827Z,3.30
2017-08-18T03:59:12.307Z,3.70
2017-08-18T04:01:38.863Z,4.20
2017-08-18T04:04:05.376Z,3.60
2017-08-18T04:06:33.211Z,3.93
2017-08-18T04:08:59.792Z,4.23
2017-08-18T04:11:26.184Z,4.03
2017-08-18T04:13:52.584Z,4.80
2017-08-18T04:16:18.959Z,3.50
2017-08-18T04:18:45.380Z,3.70
2017-08-18T04:21:11.814Z,5.13
2017-08-18T04:23:38.337Z,4.27
2017-08-18T04:26:04.782Z,4.03
2017-08-18T04:28:31.179Z,4.10
2017-08-18T04:30:57.628Z,3.40
2017-08-18T04:33:24.113Z,3.60
2017-08-18T04:35:50.621Z,3.53
2017-08-18T04:38:17.444Z,3.73
2017-08-18T04:40:43.875Z,4.17
2017-08-18T04:43:10.244Z,4.20
2017-08-18T04:45:36.638Z,4.40
2017-08-18T04:48:03.052Z,4.97
2017-08-18T04:50:29.491Z,4.20
2017-08-18T04:52:55.890Z,4.60
2017-08-18T04:55:22.269Z,4.17
2017-08-18T04:57:48.689Z,5.63
2017-08-18T05:00:15.122Z,4.97
2017-08-18T05:02:41.505Z,4.50
2017-08-18T05:05:07.934Z,5.00
2017-08-18T05:07:34.299Z,4.47
2017-08-18T05:10:00.661Z,4.47
2017-08-18T05:12:27.033Z,4.40
2017-08-18T05:14:53.395Z,5.30
2017-08-18T05:17:19.769Z,4.00
2017-08-18T05:19:46.189Z,4.50
2017-08-18T05:22:12.608Z,4.20
2017-08-18T05:24:39.015Z,4.20
2017-08-18T05:27:05.399Z,4.60
2017-08-18T05:29:31.949Z,4.07
2017-08-18T05:31:58.379Z,4.43
2017-08-18T05:34:24.722Z,4.53
2017-08-18T05:36:51.123Z,4.03
2017-08-18T05:39:17.501Z,4.23
2017-08-18T05:41:43.900Z,4.30
2017-08-18T05:45:14.620Z,4.60
2017-08-18T05:47:40.972Z,5.30
2017-08-18T05:50:07.353Z,4.20
2017-08-18T05:52:34.085Z,5.10
2017-08-18T05:55:00.473Z,5.13
2017-08-18T05:57:26.839Z,5.07
2017-08-18T05:59:53.261Z,4.40
2017-08-18T06:02:19.636Z,4.60
2017-08-18T06:04:46.504Z,5.27
2017-08-18T06:07:16.151Z,4.70
2017-08-18T06:09:42.528Z,4.53
2017-08-18T06:12:08.883Z,4.47
2017-08-18T06:14:35.273Z,4.60
2017-08-18T06:17:01.631Z,4.80
2017-08-18T06:19:28.017Z,4.17
2017-08-18T06:21:54.409Z,5.03
2017-08-18T06:24:20.772Z,4.40
2017-08-18T06:26:47.141Z,4.23
2017-08-18T06:29:13.527Z,4.50
2017-08-18T06:31:39.907Z,4.53
2017-08-18T06:34:06.350Z,4.87
2017-08-18T06:36:36.038Z,4.80
2017-08-18T06:39:02.512Z,4.20
2017-08-18T06:41:28.904Z,4.70
2017-08-18T06:43:55.778Z,4.53
2017-08-18T06:46:22.183Z,4.87
2017-08-18T06:48:48.627Z,4.73
2017-08-18T06:51:14.993Z,4.83
2017-08-18T06:53:41.435Z,5.00
2017-08-18T06:56:07.844Z,4.63
2017-08-18T06:58:34.250Z,5.13
2017-08-18T07:01:00.658Z,4.83
2017-08-18T07:03:27.028Z,5.67
2017-08-18T07:05:53.391Z,5.90
2017-08-18T07:08:19.789Z,5.30
2017-08-18T07:10:47.127Z,6.63
2017-08-18T07:13:13.511Z,5.10
2017-08-18T07:15:39.922Z,5.70
2017-08-18T07:18:06.373Z,4.87
2017-08-18T07:20:32.729Z,5.00
2017-08-18T07:22:59.149Z,5.83
2017-08-18T07:25:25.517Z,5.83
2017-08-18T07:27:51.998Z,6.00
2017-08-18T07:30:18.376Z,6.33
2017-08-18T07:32:45.967Z,5.10
2017-08-18T07:35:12.725Z,6.20
2017-08-18T07:37:39.359Z,6.10
2017-08-18T07:40:05.760Z,5.50
2017-08-18T07:42:32.219Z,6.17
2017-08-18T07:44:58.624Z,6.17
2017-08-18T07:47:25.085Z,6.23
2017-08-18T07:49:52.131Z,6.30
2017-08-18T07:52:18.529Z,5.37
2017-08-18T07:54:44.908Z,6.10
2017-08-18T07:57:15.039Z,5.70
2017-08-18T07:59:46.422Z,5.90
2017-08-18T08:02:16.713Z,5.53
2017-08-18T08:04:47.048Z,5.60
2017-08-18T08:07:20.232Z,7.23
2017-08-18T08:09:51.192Z,6.17
2017-08-18T08:12:21.842Z,5.53
2017-08-18T08:14:52.374Z,6.30
2017-08-18T08:17:22.579Z,6.27
2017-08-18T08:36:08.215Z,4.63
2017-08-18T08:38:38.423Z,5.17
2017-08-18T08:41:09.048Z,5.33
2017-08-18T08:43:40.594Z,5.73
2017-08-18T08:46:11.096Z,5.23
2017-08-18T09:01:37.817Z,5.20
2017-08-18T09:04:04.296Z,4.97
2017-08-18T09:06:31.262Z,4.80
2017-08-18T09:08:57.675Z,5.17
2017-08-18T09:11:24.070Z,4.77
2017-08-18T09:13:50.495Z,4.60
2017-08-18T09:16:16.956Z,3.90
2017-08-18T09:18:43.352Z,3.83
2017-08-18T09:21:09.760Z,3.77
2017-08-18T09:23:36.156Z,3.80
2017-08-18T09:26:03.083Z,3.63
2017-08-18T09:28:29.529Z,3.90
2017-08-18T09:30:55.900Z,4.13
2017-08-18T09:33:22.286Z,4.70
2017-08-18T09:35:48.874Z,4.07
2017-08-18T09:38:15.299Z,3.77
2017-08-18T09:40:41.682Z,4.53
2017-08-18T09:43:08.116Z,5.40
2017-08-18T09:45:34.554Z,4.23
2017-08-18T09:48:12.966Z,4.00
2017-08-18T09:50:51.458Z,4.40
2017-08-18T09:53:29.921Z,4.43
2017-08-18T09:56:08.888Z,3.50
2017-08-18T09:58:47.514Z,3.73
2017-08-18T10:01:13.890Z,4.27
2017-08-18T10:03:40.283Z,3.87
2017-08-18T10:06:06.695Z,3.47
2017-08-18T10:08:33.332Z,4.53
2017-08-18T10:10:59.752Z,3.90
2017-08-18T10:13:26.343Z,4.00
2017-08-18T10:15:52.754Z,3.40
2017-08-18T10:18:19.205Z,4.63
2017-08-18T10:20:45.734Z,4.17
2017-08-18T10:23:12.539Z,3.80
2017-08-18T10:25:38.933Z,3.33
2017-08-18T10:28:05.541Z,3.67
2017-08-18T10:30:31.941Z,4.03
2017-08-18T10:33:00.149Z,3.50
2017-08-18T10:35:26.668Z,4.20
2017-08-18T10:37:53.115Z,4.37
2017-08-18T10:40:19.504Z,4.73
2017-08-18T10:42:45.929Z,4.67
2017-08-18T10:45:12.992Z,4.37
2017-08-18T10:47:39.433Z,4.33
2017-08-18T10:50:06.161Z,4.40
2017-08-18T10:52:32.569Z,4.70
2017-08-18T10:54:59.154Z,4.30
2017-08-18T10:57:25.620Z,4.43
2017-08-18T10:59:52.025Z,5.33
2017-08-18T11:02:18.944Z,5.37
2017-08-18T11:04:45.817Z,5.90
2017-08-18T11:07:12.211Z,5.40
2017-08-18T11:09:39.425Z,4.37
2017-08-18T11:12:05.923Z,5.00
2017-08-18T11:14:32.315Z,4.80
2017-08-18T11:16:58.696Z,4.50
2017-08-18T11:19:25.088Z,4.63
2017-08-18T11:21:51.487Z,4.87
2017-08-18T11:24:17.850Z,4.27
2017-08-18T11:26:44.297Z,4.37
2017-08-18T11:29:10.714Z,4.60
2017-08-18T11:31:37.098Z,4.67
2017-08-18T11:34:03.568Z,4.33
2017-08-18T11:36:29.963Z,4.43
2017-08-18T11:38:56.355Z,4.30
2017-08-18T11:41:22.759Z,4.83
2017-08-18T11:43:49.191Z,4.30
2017-08-18T11:46:15.579Z,4.57
2017-08-18T11:48:41.974Z,4.57
2017-08-18T11:51:08.371Z,4.70
2017-08-18T11:53:34.759Z,4.57
2017-08-18T11:56:01.171Z,4.83
2017-08-18T11:58:27.577Z,4.80
2017-08-18T12:00:53.979Z,3.93
2017-08-18T12:03:20.797Z,4.20
2017-08-18T12:05:47.457Z,3.60
2017-08-18T12:08:14.142Z,4.07
2017-08-18T12:10:40.558Z,4.20
2017-08-18T12:13:07.516Z,4.47
2017-08-18T12:15:34.006Z,4.60
2017-08-18T12:18:00.691Z,4.37
2017-08-18T12:20:27.317Z,3.90
2017-08-18T12:22:54.014Z,4.40
2017-08-18T12:25:20.516Z,4.23
2017-08-18T12:27:47.269Z,4.90
2017-08-18T12:30:13.690Z,3.97
2017-08-18T12:32:40.090Z,4.50
2017-08-18T12:35:06.517Z,3.90
2017-08-18T12:37:34.716Z,4.30
2017-08-18T12:42:48.466Z,4.00
2017-08-18T12:45:14.937Z,3.10
2017-08-18T12:47:41.324Z,2.83
2017-08-18T12:50:07.769Z,3.30
2017-08-18T12:52:34.206Z,2.60
2017-08-18T12:55:00.611Z,3.40
2017-08-18T12:57:26.978Z,2.73
2017-08-18T12:59:53.356Z,3.03
2017-08-18T13:02:19.851Z,3.13
2017-08-18T13:04:46.263Z,2.60
2017-08-18T13:07:12.681Z,2.63
2017-08-18T13:09:39.059Z,3.03
2017-08-18T13:12:05.436Z,2.70
2017-08-18T13:14:31.814Z,3.10
2017-08-18T13:16:58.244Z,2.50
2017-08-18T13:19:24.992Z,2.60
2017-08-18T13:21:51.388Z,2.87
2017-08-18T13:24:17.783Z,3.30
2017-08-18T13:26:44.162Z,3.23
2017-08-18T13:29:12.126Z,3.83
2017-08-18T13:31:38.568Z,4.07
2017-08-18T13:34:04.931Z,4.63
2017-08-18T13:36:31.328Z,4.67
2017-08-18T13:38:57.719Z,4.70
2017-08-18T13:41:24.086Z,4.17
2017-08-18T13:43:50.438Z,4.80
2017-08-18T13:46:16.843Z,4.47
2017-08-18T13:48:43.243Z,5.90
2017-08-18T13:51:09.615Z,5.30
2017-08-18T13:53:35.999Z,5.67
2017-08-18T13:56:02.391Z,5.70
2017-08-18T13:58:28.760Z,6.50
2017-08-18T14:00:55.154Z,5.63
2017-08-18T14:03:21.609Z,5.90
2017-08-18T14:05:47.980Z,5.17
2017-08-18T14:08:14.342Z,5.20
2017-08-18T14:10:40.791Z,4.73
2017-08-18T14:13:07.174Z,4.83
2017-08-18T14:15:33.535Z,4.23
2017-08-18T14:17:59.883Z,4.00
2017-08-18T14:20:26.284Z,4.17
2017-08-18T14:22:52.721Z,4.17
2017-08-18T14:38:49.971Z,5.30
2017-08-18T14:41:16.348Z,4.80
2017-08-18T14:43:42.731Z,5.07
2017-08-18T14:46:09.129Z,4.07
2017-08-18T14:48:35.495Z,4.93
2017-08-18T14:51:01.897Z,4.50
2017-08-18T14:53:28.284Z,4.50
2017-08-18T14:55:54.685Z,4.83
2017-08-18T14:58:21.155Z,4.87
2017-08-18T15:00:47.600Z,4.77
2017-08-18T15:03:14.024Z,4.77
2017-08-18T15:05:40.390Z,4.47
2017-08-18T15:08:06.789Z,5.07
2017-08-18T15:10:33.183Z,4.50
2017-08-18T15:12:59.574Z,5.30
2017-08-18T15:15:25.937Z,6.30
2017-08-18T15:17:52.318Z,5.60
2017-08-18T15:20:18.718Z,5.03
2017-08-18T15:22:45.121Z,3.40
2017-08-18T15:25:11.550Z,4.33
2017-08-18T15:27:39.230Z,3.70
2017-08-18T15:30:06.319Z,3.47
2017-08-18T15:32:33.181Z,3.23
2017-08-18T15:34:59.656Z,2.90
2017-08-18T15:37:26.059Z,2.83
2017-08-18T15:39:52.550Z,3.63
2017-08-18T15:42:18.944Z,2.97
2017-08-18T15:44:45.351Z,4.10
2017-08-18T15:47:11.909Z,3.90
2017-08-18T15:49:38.359Z,4.77
2017-08-18T15:52:04.708Z,3.90
2017-08-18T15:54:31.086Z,4.20
2017-08-18T15:56:57.938Z,3.63
2017-08-18T15:59:24.753Z,3.67
2017-08-18T16:01:51.668Z,3.80
2017-08-18T16:04:18.427Z,3.40
2017-08-18T16:06:44.897Z,3.40
2017-08-18T16:09:11.317Z,3.93
2017-08-18T16:11:37.723Z,4.23
2017-08-18T16:14:04.121Z,3.93
2017-08-18T16:16:30.601Z,3.90
2017-08-18T16:18:57.000Z,4.20
2017-08-18T16:21:23.778Z,3.80
2017-08-18T16:23:50.190Z,4.53
2017-08-18T16:26:16.592Z,3.60
2017-08-18T16:28:43.533Z,4.43
2017-08-18T16:31:09.973Z,3.00
2017-08-18T16:33:36.364Z,3.73
2017-08-18T16:36:03.027Z,4.47
2017-08-18T16:38:29.426Z,3.80
2017-08-18T16:40:55.831Z,4.13
2017-08-18T16:43:22.241Z,4.10
2017-08-18T16:45:48.969Z,4.57
2017-08-18T16:48:15.973Z,3.40
2017-08-18T16:50:42.681Z,4.87
2017-08-18T16:53:09.301Z,4.47
2017-08-18T16:55:35.732Z,4.00
2017-08-18T16:58:02.325Z,4.70
2017-08-18T17:00:28.739Z,4.40
2017-08-18T17:02:55.118Z,4.30
2017-08-18T17:05:21.475Z,4.97
2017-08-18T17:07:47.879Z,5.30
2017-08-18T17:10:14.301Z,5.53
2017-08-18T17:12:40.682Z,4.97
2017-08-18T17:15:07.047Z,4.53
2017-08-18T17:17:33.440Z,4.77
2017-08-18T17:19:59.816Z,6.03
2017-08-18T17:22:26.189Z,4.93
2017-08-18T17:24:53.854Z,5.10
2017-08-18T17:27:20.291Z,4.93
2017-08-18T17:29:46.663Z,5.23
2017-08-18T17:32:13.036Z,4.37
2017-08-18T17:34:39.412Z,6.10
2017-08-18T17:37:05.793Z,5.60
2017-08-18T17:39:32.146Z,5.93
2017-08-18T17:41:58.698Z,5.30
2017-08-18T17:44:25.054Z,5.23
2017-08-18T17:46:51.424Z,4.80
2017-08-18T17:49:17.795Z,5.37
2017-08-18T17:51:44.166Z,5.33
2017-08-18T17:54:10.517Z,5.20
2017-08-18T17:56:36.912Z,5.17
2017-08-18T17:59:03.286Z,5.00
2017-08-18T18:01:29.664Z,5.57
2017-08-18T18:03:56.062Z,6.17
2017-08-18T18:06:22.545Z,5.37
2017-08-18T18:08:48.977Z,5.70
2017-08-18T18:11:16.172Z,6.00
2017-08-18T18:13:42.603Z,5.57
2017-08-18T18:16:08.978Z,4.70
2017-08-18T18:18:35.386Z,5.20
2017-08-18T18:21:01.773Z,5.67
2017-08-18T18:23:28.144Z,5.40
2017-08-18T18:25:54.549Z,4.70
2017-08-18T18:28:20.909Z,4.93
2017-08-18T18:30:48.020Z,6.10
2017-08-18T18:33:14.489Z,4.50
2017-08-18T18:35:40.844Z,5.13
2017-08-18T18:38:07.228Z,5.50
2017-08-18T18:40:33.656Z,5.40
2017-08-18T18:43:00.063Z,5.30
2017-08-18T18:45:26.459Z,5.50
2017-08-18T18:47:52.953Z,5.60
2017-08-18T18:50:20.973Z,4.80
2017-08-18T18:52:47.405Z,5.40
2017-08-18T18:55:13.811Z,5.13
2017-08-18T18:57:40.241Z,5.03
2017-08-18T19:00:06.630Z,5.20
2017-08-18T19:02:33.050Z,4.87
2017-08-18T19:04:59.429Z,5.17
2017-08-18T19:07:25.882Z,5.00
2017-08-18T19:09:52.297Z,5.70
2017-08-18T19:12:18.735Z,5.40
2017-08-18T19:14:45.122Z,5.00
2017-08-18T19:17:11.531Z,4.40
2017-08-18T19:19:37.928Z,5.10
2017-08-18T19:22:04.920Z,5.77
2017-08-18T19:24:31.335Z,4.83
2017-08-18T19:26:57.727Z,5.53
2017-08-18T19:29:24.134Z,5.27
2017-08-18T19:31:50.551Z,6.20
2017-08-18T19:34:16.926Z,5.80
2017-08-18T19:36:43.328Z,6.07
2017-08-18T19:39:09.708Z,5.60
2017-08-18T19:41:36.163Z,6.13
2017-08-18T19:44:02.718Z,6.30
2017-08-18T19:46:29.084Z,6.00
2017-08-18T19:48:56.790Z,5.43
2017-08-18T19:51:24.822Z,6.17
2017-08-18T19:53:51.364Z,5.90
2017-08-18T19:56:17.738Z,7.00
2017-08-18T19:58:44.116Z,6.63
2017-08-18T20:01:10.497Z,5.60
2017-08-18T20:03:36.862Z,6.00
2017-08-18T20:06:03.216Z,6.43
2017-08-18T20:08:29.880Z,6.00
2017-08-18T20:10:56.229Z,6.30
2017-08-18T20:13:22.615Z,4.97
2017-08-18T20:15:49.035Z,5.10
2017-08-18T20:18:15.415Z,6.20
2017-08-18T20:20:41.805Z,6.83
2017-08-18T20:23:08.180Z,6.97
2017-08-18T20:25:34.537Z,7.40
2017-08-18T20:28:00.926Z,7.43
2017-08-18T20:30:27.290Z,7.90
2017-08-18T20:32:54.007Z,7.10
2017-08-18T20:35:20.361Z,2.63
2017-08-18T20:37:46.738Z,2.80
2017-08-18T20:40:13.110Z,2.50
2017-08-18T20:42:39.489Z,2.67
2017-08-18T20:45:05.886Z,4.17
2017-08-18T20:47:32.276Z,3.73
2017-08-18T20:49:58.627Z,3.90
2017-08-18T20:52:24.972Z,3.00
2017-08-18T20:54:51.382Z,4.07
2017-08-18T20:57:17.747Z,3.47
2017-08-18T20:59:44.114Z,3.27
2017-08-18T21:02:10.514Z,3.07
2017-08-18T21:04:36.931Z,3.67
2017-08-18T21:07:03.301Z,3.17
2017-08-18T21:09:29.700Z,3.17
2017-08-18T21:11:56.074Z,3.43
2017-08-18T21:14:22.464Z,3.60
2017-08-18T21:16:48.854Z,3.73
2017-08-18T21:19:15.229Z,3.73
2017-08-18T21:21:41.655Z,3.30
2017-08-18T21:24:08.017Z,3.87
2017-08-18T21:26:34.374Z,3.57
2017-08-18T21:29:00.760Z,3.17
2017-08-18T21:31:27.876Z,4.13
2017-08-18T21:33:54.320Z,3.57
2017-08-18T21:36:20.679Z,4.37
2017-08-18T21:38:47.951Z,4.20
2017-08-18T21:41:14.587Z,3.53
2017-08-18T21:43:41.088Z,4.43
2017-08-18T21:46:07.803Z,4.63
2017-08-18T21:48:34.211Z,5.10
2017-08-18T21:51:00.821Z,5.33
2017-08-18T21:53:27.237Z,4.27
2017-08-18T21:55:54.052Z,4.10
2017-08-18T21:58:20.445Z,4.03
2017-08-18T22:00:47.158Z,4.00
2017-08-18T22:03:13.615Z,4.50
2017-08-18T22:05:40.048Z,3.70
2017-08-18T22:08:06.424Z,4.00
2017-08-18T22:10:32.784Z,4.20
2017-08-18T22:12:59.149Z,3.70
2017-08-18T22:15:25.568Z,4.00
2017-08-18T22:17:52.003Z,4.03
2017-08-18T22:20:18.403Z,4.20
2017-08-18T22:22:44.750Z,3.40
2017-08-18T22:25:11.230Z,2.93
2017-08-18T22:27:37.623Z,2.70
2017-08-18T22:30:04.044Z,2.57
2017-08-18T22:32:30.387Z,3.20
2017-08-18T22:34:56.754Z,2.67
2017-08-18T22:37:23.909Z,2.77
2017-08-18T22:39:51.012Z,3.27
2017-08-18T22:42:18.046Z,3.60
2017-08-18T22:44:44.694Z,3.07
2017-08-18T22:47:11.078Z,2.80
2017-08-18T22:49:37.440Z,2.80
2017-08-18T22:52:04.539Z,2.93
2017-08-18T22:54:31.005Z,3.07
2017-08-18T22:56:58.522Z,2.87
2017-08-18T22:59:24.903Z,3.07
2017-08-18T23:01:51.282Z,3.10
2017-08-18T23:04:17.695Z,2.80
2017-08-18T23:06:44.099Z,2.97
2017-08-18T23:09:14.902Z,2.80
2017-08-18T23:11:41.456Z,3.37
2017-08-18T23:14:07.833Z,2.97
2017-08-18T23:16:34.218Z,2.90
2017-08-18T23:19:01.396Z,3.07
2017-08-18T23:21:29.631Z,2.30
2017-08-18T23:23:56.733Z,3.83
2017-08-18T23:26:23.135Z,3.03
2017-08-18T23:28:50.350Z,2.93
2017-08-18T23:31:16.801Z,3.30
2017-08-18T23:33:43.448Z,2.90
2017-08-18T23:36:09.996Z,2.83
2017-08-18T23:38:36.395Z,3.17
2017-08-18T23:41:02.756Z,2.27
2017-08-18T23:43:29.166Z,3.13
2017-08-18T23:45:55.568Z,3.23
2017-08-18T23:48:21.952Z,2.53
2017-08-18T23:50:48.427Z,2.43
2017-08-18T23:53:14.809Z,3.10
2017-08-18T23:55:44.210Z,2.57
2017-08-18T23:58:11.240Z,3.27
